Ceske Budejovice, Czech Republic

6:52 PM CET on February 14, 2016 (GMT +0100)
Linz | | Change Station
CLOSE
Current Station
Airport
Location: Linz Airport,
Elevation: 1027 ft
Nearby Weather Stations

Elev 1027 ft 48.23 °N, 14.19 °E | Updated 32 minutes ago

Mostly Cloudy
Mostly Cloudy
39 °F
Feels Like 39 °F
N
2
Wind Variable Wind from Variable

Today
High -- | Low -- °F
--% Chance of Precip.
Yesterday
High -- | Low -- °F
Precip. -- in
Pressure 29.24 in
Visibility 6.2 miles
Clouds Few 5000 ft
Mostly Cloudy 18000 ft
Dew Point 36 °F
Humidity 87%
Rainfall 0.00 in
Snow Depth Not available.
7:13 AM 5:20 PM
Waxing Crescent, 43% visible
METAR LOWL 141720Z VRB02KT 9999 FEW050 BKN180 04/02 Q0990 NOSIG
Pressure 29.24 in
Visibility 6.2 miles
Clouds Few 5000 ft
Mostly Cloudy 18000 ft
Dew Point 36 °F
Humidity 87%
Rainfall 0.00 in
Snow Depth Not available.
7:13 AM 5:20 PM
Waxing Crescent, 43% visible
METAR LOWL 141720Z VRB02KT 9999 FEW050 BKN180 04/02 Q0990 NOSIG

10-Day Weather Forecast

Almanac

Astronomy

Feb. 14, 2016 Rise Set
Actual Time
Civil Twilight
Nautical Twilight
Astronomical Twilight
Moon
Length of Visible Light
Length of Day
Tomorrow will be .
, % of the Moon is Illuminated

Today's Extremes

Country Highs Country Lows

Community

WunderPhotos

Upload Photos

1,892,860 photos uploaded!

WunderBlog® & News

Nearby

Air Quality

  Air Quality AQ Index Pollutant
Not available.

Snow Depth

Station Depth Elevation

Earthquake Activity

City Distance Mag. Time & Date
Minimum magnitude displayed is 2.5.

Coastal Water Temperatures

Place Temperature

Stations

Nearby Weather Stations

Station Location Temp. Windchill Dew Point Humidity Wind Precip. Elev Updated Type